createdAt,value
2022-08-19T00:01:53.300Z,20.98
2022-08-19T00:04:21.837Z,21.00
2022-08-19T00:06:48.291Z,21.10
2022-08-19T00:09:16.127Z,21.11
2022-08-19T00:11:42.899Z,21.12
2022-08-19T00:14:11.078Z,21.11
2022-08-19T00:16:37.894Z,21.10
2022-08-19T00:19:04.372Z,21.01
2022-08-19T00:21:31.200Z,21.05
2022-08-19T00:24:01.161Z,21.06
2022-08-19T00:26:28.626Z,21.06
2022-08-19T00:28:55.295Z,21.07
2022-08-19T00:31:21.755Z,21.12
2022-08-19T00:33:51.514Z,21.03
2022-08-19T00:36:18.330Z,21.05
2022-08-19T00:38:44.960Z,20.87
2022-08-19T00:41:15.482Z,20.87
2022-08-19T00:43:42.226Z,20.84
2022-08-19T00:46:08.819Z,20.86
2022-08-19T00:48:37.065Z,20.96
2022-08-19T00:51:05.287Z,20.90
2022-08-19T00:53:32.714Z,20.91
2022-08-19T00:56:00.453Z,20.86
2022-08-19T00:58:29.306Z,20.82
2022-08-19T01:00:55.690Z,20.71
2022-08-19T01:03:22.790Z,20.78
2022-08-19T01:05:50.756Z,20.77
2022-08-19T01:08:18.263Z,20.68
2022-08-19T01:10:47.557Z,20.55
2022-08-19T01:13:18.487Z,20.46
2022-08-19T01:15:47.338Z,20.52
2022-08-19T01:18:15.381Z,20.48
2022-08-19T01:20:42.807Z,20.53
2022-08-19T01:23:09.469Z,20.55
2022-08-19T01:25:37.983Z,20.53
2022-08-19T01:28:10.636Z,20.52
2022-08-19T01:30:38.209Z,20.51
2022-08-19T01:33:06.651Z,20.44
2022-08-19T01:35:33.432Z,20.46
2022-08-19T01:38:01.271Z,20.39
2022-08-19T01:40:31.673Z,20.37
2022-08-19T01:42:58.403Z,20.38
2022-08-19T01:45:26.036Z,20.36
2022-08-19T01:48:01.623Z,20.43
2022-08-19T01:50:29.397Z,20.49
2022-08-19T01:53:06.404Z,20.42
2022-08-19T01:55:34.094Z,20.18
2022-08-19T01:58:02.657Z,20.26
2022-08-19T02:00:30.580Z,20.36
2022-08-19T02:02:57.370Z,20.35
2022-08-19T02:05:24.047Z,20.38
2022-08-19T02:07:50.533Z,20.39
2022-08-19T02:10:22.353Z,20.38
2022-08-19T02:12:50.436Z,20.36
2022-08-19T02:15:17.362Z,20.45
2022-08-19T02:17:44.665Z,20.47
2022-08-19T02:20:11.388Z,20.45
2022-08-19T02:22:37.907Z,20.30
2022-08-19T02:25:05.854Z,20.42
2022-08-19T02:27:32.259Z,20.46
2022-08-19T02:29:58.773Z,20.43
2022-08-19T02:32:25.150Z,20.43
2022-08-19T02:34:51.531Z,20.52
2022-08-19T02:37:36.725Z,20.51
2022-08-19T02:40:04.236Z,20.54
2022-08-19T02:42:39.041Z,20.55
2022-08-19T02:45:06.543Z,20.54
2022-08-19T02:47:32.886Z,20.48
2022-08-19T02:49:59.367Z,20.51
2022-08-19T02:52:26.464Z,20.52
2022-08-19T02:54:52.869Z,20.55
2022-08-19T02:57:19.252Z,20.56
2022-08-19T02:59:45.656Z,20.62
2022-08-19T03:02:11.997Z,20.63
2022-08-19T03:04:38.374Z,20.60
2022-08-19T03:07:10.725Z,20.68
2022-08-19T03:09:38.375Z,20.58
2022-08-19T03:12:05.470Z,20.60
2022-08-19T03:14:32.642Z,20.61
2022-08-19T03:16:59.443Z,20.59
2022-08-19T03:19:25.852Z,20.56
2022-08-19T03:21:52.475Z,20.58
2022-08-19T03:24:19.783Z,20.55
2022-08-19T03:26:47.722Z,20.53
2022-08-19T03:29:14.265Z,20.56
2022-08-19T03:31:52.531Z,20.60
2022-08-19T03:34:27.186Z,20.56
2022-08-19T03:36:55.408Z,20.61
2022-08-19T03:39:22.264Z,20.66
2022-08-19T03:42:31.972Z,20.67
2022-08-19T03:44:38.791Z,20.73
2022-08-19T03:47:06.283Z,20.58
2022-08-19T03:49:34.508Z,20.48
2022-08-19T03:52:05.973Z,20.55
2022-08-19T03:54:32.364Z,20.63
2022-08-19T03:56:58.832Z,20.59
2022-08-19T03:59:32.063Z,20.48
2022-08-19T04:02:00.590Z,20.52
2022-08-19T04:04:29.293Z,20.51
2022-08-19T04:06:55.992Z,20.53
2022-08-19T04:09:22.446Z,20.52
2022-08-19T04:11:54.809Z,20.56
2022-08-19T04:14:23.182Z,20.59
2022-08-19T04:16:49.941Z,20.65
2022-08-19T04:19:17.610Z,20.53
2022-08-19T04:21:46.087Z,20.50
2022-08-19T04:24:13.184Z,20.59
2022-08-19T04:26:40.081Z,20.62
2022-08-19T04:29:12.321Z,20.64
2022-08-19T04:31:40.287Z,20.59
2022-08-19T04:34:07.432Z,20.47
2022-08-19T04:36:35.637Z,20.49
2022-08-19T04:39:04.435Z,20.51
2022-08-19T04:41:49.322Z,20.49
2022-08-19T04:44:19.038Z,20.46
2022-08-19T04:46:51.374Z,20.45
2022-08-19T04:49:20.289Z,20.51
2022-08-19T04:51:48.666Z,20.53
2022-08-19T04:54:15.850Z,20.50
2022-08-19T04:56:57.400Z,20.47
2022-08-19T04:59:23.817Z,20.57
2022-08-19T05:01:50.928Z,20.50
2022-08-19T05:04:21.388Z,20.62
2022-08-19T05:06:49.570Z,20.57
2022-08-19T05:09:16.289Z,20.53
2022-08-19T05:11:43.202Z,20.56
2022-08-19T05:14:10.287Z,20.52
2022-08-19T05:16:36.651Z,20.56
2022-08-19T05:19:21.549Z,20.53
2022-08-19T05:22:06.780Z,20.54
2022-08-19T05:24:35.194Z,20.54
2022-08-19T05:27:03.552Z,20.56
2022-08-19T05:29:36.346Z,20.67
2022-08-19T05:32:06.051Z,20.71
2022-08-19T05:34:33.906Z,20.60
2022-08-19T05:37:01.925Z,20.57
2022-08-19T05:39:30.077Z,20.61
2022-08-19T05:41:59.513Z,20.52
2022-08-19T05:44:26.646Z,20.52
2022-08-19T05:46:56.034Z,20.58
2022-08-19T05:49:23.665Z,20.59
2022-08-19T05:51:50.333Z,20.47
2022-08-19T05:54:17.368Z,20.45
2022-08-19T05:56:48.746Z,20.46
2022-08-19T05:59:17.126Z,20.38
2022-08-19T06:01:46.807Z,20.45
2022-08-19T06:04:14.678Z,20.42
2022-08-19T06:06:41.189Z,20.40
2022-08-19T06:09:08.571Z,20.37
2022-08-19T06:11:37.409Z,20.36
2022-08-19T06:14:05.357Z,20.42
2022-08-19T06:16:36.192Z,20.20
2022-08-19T06:19:07.031Z,20.19
2022-08-19T06:21:33.950Z,20.15
2022-08-19T06:24:00.771Z,20.20
2022-08-19T06:26:27.737Z,20.21
2022-08-19T06:28:54.556Z,20.14
2022-08-19T06:31:24.056Z,20.10
2022-08-19T06:33:50.934Z,20.15
2022-08-19T06:36:28.557Z,20.00
2022-08-19T06:38:55.256Z,19.99
2022-08-19T06:41:21.623Z,20.02
2022-08-19T06:43:49.976Z,19.91
2022-08-19T06:46:20.815Z,19.89
2022-08-19T06:48:48.358Z,19.81
2022-08-19T06:51:16.728Z,19.88
2022-08-19T06:53:47.965Z,19.95
2022-08-19T06:56:17.032Z,19.94
2022-08-19T06:58:43.719Z,19.97
2022-08-19T07:01:10.180Z,20.07
2022-08-19T07:03:37.809Z,19.99
2022-08-19T07:06:07.154Z,19.94
2022-08-19T07:11:09.373Z,19.94
2022-08-19T07:13:38.092Z,19.81
2022-08-19T07:16:06.221Z,19.93
2022-08-19T07:18:33.923Z,19.87
2022-08-19T07:21:13.327Z,19.96
2022-08-19T07:23:40.194Z,20.05
2022-08-19T07:26:27.900Z,20.04
2022-08-19T07:28:55.257Z,20.08
2022-08-19T07:31:23.213Z,20.07
2022-08-19T07:33:51.415Z,20.10
2022-08-19T07:36:22.496Z,20.05
2022-08-19T07:38:52.166Z,19.94
2022-08-19T07:41:21.774Z,20.10
2022-08-19T07:43:48.880Z,20.19
2022-08-19T07:46:16.035Z,19.95
2022-08-19T07:48:43.501Z,20.11
2022-08-19T07:51:12.248Z,20.18
2022-08-19T07:53:40.825Z,20.10
2022-08-19T07:56:09.266Z,20.25
2022-08-19T07:58:38.993Z,20.22
2022-08-19T08:01:06.411Z,20.12
2022-08-19T08:03:51.314Z,20.21
2022-08-19T08:06:36.178Z,20.19
2022-08-19T08:09:16.630Z,20.28
2022-08-19T08:11:50.610Z,20.28
2022-08-19T08:14:29.212Z,20.37
2022-08-19T08:16:56.586Z,20.29
2022-08-19T08:19:26.523Z,20.28
2022-08-19T08:21:54.415Z,20.40
2022-08-19T08:24:21.468Z,20.25
2022-08-19T08:26:52.018Z,20.12
2022-08-19T08:29:20.611Z,20.26
2022-08-19T08:31:47.987Z,20.28
2022-08-19T08:34:25.290Z,20.34
2022-08-19T08:36:53.062Z,20.28
2022-08-19T08:39:20.376Z,20.17
2022-08-19T08:41:54.060Z,20.13
2022-08-19T08:44:39.112Z,20.20
2022-08-19T08:47:13.430Z,20.13
2022-08-19T08:49:46.246Z,20.05
2022-08-19T08:52:16.548Z,20.05
2022-08-19T08:54:48.920Z,19.97
2022-08-19T08:57:36.973Z,19.97
2022-08-19T09:00:15.445Z,20.10
2022-08-19T09:02:43.535Z,19.99
2022-08-19T09:05:11.062Z,20.08
2022-08-19T09:07:51.105Z,20.25
2022-08-19T09:10:17.760Z,20.54
2022-08-19T09:12:53.337Z,20.51
2022-08-19T09:15:27.756Z,20.62
2022-08-19T09:18:02.655Z,20.59
2022-08-19T09:20:29.554Z,20.48
2022-08-19T09:22:55.923Z,20.66
2022-08-19T09:25:26.699Z,20.76
2022-08-19T09:28:01.182Z,20.73
2022-08-19T09:30:31.382Z,20.71
2022-08-19T09:32:58.123Z,20.70
2022-08-19T09:35:25.665Z,20.88
2022-08-19T09:37:57.596Z,20.96
2022-08-19T09:40:26.689Z,20.94
2022-08-19T09:42:53.706Z,20.88
2022-08-19T09:45:24.088Z,20.89
2022-08-19T09:47:53.896Z,20.85
2022-08-19T09:50:21.602Z,20.76
2022-08-19T09:52:55.554Z,20.84
2022-08-19T09:55:25.034Z,21.04
2022-08-19T09:57:57.879Z,20.92
2022-08-19T10:00:24.280Z,20.98
2022-08-19T10:02:50.659Z,21.19
2022-08-19T10:05:38.506Z,21.44
2022-08-19T10:08:13.133Z,21.63
2022-08-19T10:10:46.669Z,21.65
2022-08-19T10:13:14.446Z,21.63
2022-08-19T10:15:44.930Z,21.76
2022-08-19T10:18:14.407Z,21.85
2022-08-19T10:20:42.680Z,21.83
2022-08-19T10:23:09.900Z,21.79
2022-08-19T10:25:36.313Z,21.83
2022-08-19T10:28:05.257Z,21.90
2022-08-19T10:30:37.574Z,21.92
2022-08-19T10:33:08.455Z,21.91
2022-08-19T10:35:56.423Z,21.88
2022-08-19T10:38:31.416Z,21.88
2022-08-19T10:40:58.544Z,21.92
2022-08-19T10:43:25.985Z,21.92
2022-08-19T10:46:00.272Z,21.90
2022-08-19T10:48:26.752Z,22.02
2022-08-19T10:51:12.382Z,21.93
2022-08-19T10:53:49.877Z,22.11
2022-08-19T10:56:35.239Z,22.27
2022-08-19T10:59:02.740Z,22.39
2022-08-19T11:01:30.842Z,22.44
2022-08-19T11:03:58.384Z,22.71
2022-08-19T11:06:26.101Z,22.81
2022-08-19T11:08:55.394Z,22.67
2022-08-19T11:11:22.780Z,22.64
2022-08-19T11:13:50.858Z,22.59
2022-08-19T11:16:20.372Z,22.58
2022-08-19T11:18:49.082Z,22.45
2022-08-19T11:21:20.105Z,22.47
2022-08-19T11:23:51.257Z,22.49
2022-08-19T11:26:18.638Z,22.46
2022-08-19T11:28:45.013Z,22.45
2022-08-19T11:31:13.132Z,22.45
2022-08-19T11:33:39.840Z,22.45
2022-08-19T11:36:06.452Z,22.42
2022-08-19T11:38:32.965Z,22.54
2022-08-19T11:41:00.645Z,22.57
2022-08-19T11:43:27.848Z,22.40
2022-08-19T11:45:54.768Z,22.25
2022-08-19T11:48:23.071Z,22.22
2022-08-19T11:50:53.564Z,22.16
2022-08-19T11:53:21.029Z,22.19
2022-08-19T11:55:48.303Z,22.21
2022-08-19T11:58:18.971Z,22.14
2022-08-19T12:00:46.202Z,22.02
2022-08-19T12:03:13.349Z,22.01
2022-08-19T12:05:40.905Z,21.91
2022-08-19T12:08:07.708Z,21.83
2022-08-19T12:10:34.580Z,21.69
2022-08-19T12:13:01.107Z,21.78
2022-08-19T12:15:37.059Z,21.63
2022-08-19T12:18:04.560Z,21.47
2022-08-19T12:20:31.849Z,21.49
2022-08-19T12:23:03.194Z,21.53
2022-08-19T12:25:29.591Z,21.61
2022-08-19T12:27:57.547Z,21.69
2022-08-19T12:30:24.730Z,21.78
2022-08-19T12:32:53.391Z,21.87
2022-08-19T12:35:22.081Z,22.05
2022-08-19T12:37:56.538Z,22.09
2022-08-19T12:40:26.307Z,22.25
2022-08-19T12:42:53.256Z,22.37
2022-08-19T12:45:20.087Z,22.28
2022-08-19T12:47:49.512Z,22.23
2022-08-19T12:50:16.088Z,22.23
2022-08-19T12:52:43.411Z,22.15
2022-08-19T12:55:10.363Z,22.17
2022-08-19T12:57:36.827Z,22.34
2022-08-19T13:00:14.511Z,22.48
2022-08-19T13:02:44.913Z,22.52
2022-08-19T13:05:12.630Z,22.46
2022-08-19T13:07:42.269Z,22.37
2022-08-19T13:10:09.886Z,22.27
2022-08-19T13:12:36.660Z,22.24
2022-08-19T13:15:03.760Z,22.13
2022-08-19T13:17:38.061Z,22.14
2022-08-19T13:20:06.133Z,22.12
2022-08-19T13:22:32.582Z,22.06
2022-08-19T13:24:59.009Z,22.04
2022-08-19T13:27:25.397Z,22.06
2022-08-19T13:30:10.534Z,22.04
2022-08-19T13:32:55.641Z,21.93
2022-08-19T13:35:22.214Z,22.00
2022-08-19T13:37:48.719Z,21.99
2022-08-19T13:40:19.865Z,22.03
2022-08-19T13:42:48.614Z,21.99
2022-08-19T13:45:16.568Z,21.98
2022-08-19T13:47:45.905Z,21.97
2022-08-19T13:50:17.044Z,21.90
2022-08-19T13:52:44.029Z,21.92
2022-08-19T13:55:11.861Z,21.83
2022-08-19T13:57:40.160Z,21.81
2022-08-19T14:00:16.154Z,21.80
2022-08-19T14:02:42.672Z,21.76
2022-08-19T14:05:10.770Z,21.70
2022-08-19T14:07:37.471Z,21.73
2022-08-19T14:10:05.470Z,21.72
2022-08-19T14:12:33.062Z,21.65
2022-08-19T14:14:59.886Z,21.64
2022-08-19T14:17:26.278Z,21.71
2022-08-19T14:19:59.581Z,21.75
2022-08-19T14:22:29.821Z,21.73
2022-08-19T14:24:57.273Z,21.68
2022-08-19T14:27:26.116Z,21.69
2022-08-19T14:29:54.577Z,21.64
2022-08-19T14:32:21.197Z,21.59
2022-08-19T14:34:47.571Z,21.58
2022-08-19T14:37:17.478Z,21.54
2022-08-19T14:39:46.866Z,21.52
2022-08-19T14:42:15.481Z,21.52
2022-08-19T14:44:42.246Z,21.50
2022-08-19T14:47:10.079Z,21.54
2022-08-19T14:49:41.723Z,21.52
2022-08-19T14:52:11.235Z,21.56
2022-08-19T14:54:37.597Z,21.58
2022-08-19T14:57:04.073Z,21.54
2022-08-19T14:59:30.495Z,21.62
2022-08-19T15:01:56.978Z,21.53
2022-08-19T15:04:23.426Z,21.60
2022-08-19T15:06:51.601Z,21.57
2022-08-19T15:09:17.976Z,21.62
2022-08-19T15:11:44.382Z,21.68
2022-08-19T15:14:11.132Z,21.68
2022-08-19T15:16:38.920Z,21.59
2022-08-19T15:19:05.300Z,21.62
2022-08-19T15:21:31.733Z,21.62
2022-08-19T15:23:58.619Z,21.65
2022-08-19T15:26:27.288Z,21.59
2022-08-19T15:28:53.723Z,21.59
2022-08-19T15:31:28.290Z,21.55
2022-08-19T15:33:58.566Z,21.57
2022-08-19T15:36:26.207Z,21.58
2022-08-19T15:38:53.263Z,21.57
2022-08-19T15:41:24.274Z,21.51
2022-08-19T15:43:52.332Z,21.49
2022-08-19T15:46:20.405Z,21.51
2022-08-19T15:48:55.839Z,21.54
2022-08-19T15:51:23.599Z,21.50
2022-08-19T15:53:50.219Z,21.50
2022-08-19T15:56:16.600Z,21.44
2022-08-19T15:59:01.822Z,21.47
2022-08-19T16:01:46.750Z,21.47
2022-08-19T16:04:31.629Z,21.48
2022-08-19T16:06:59.544Z,21.51
2022-08-19T16:09:30.194Z,21.49
2022-08-19T16:12:01.757Z,21.48
2022-08-19T16:14:29.322Z,21.51
2022-08-19T16:16:56.876Z,21.52
2022-08-19T16:19:23.442Z,21.52
2022-08-19T16:21:51.273Z,21.51
2022-08-19T16:24:18.368Z,21.48
2022-08-19T16:26:44.891Z,21.44
2022-08-19T16:29:13.021Z,21.44
2022-08-19T16:31:41.510Z,21.36
2022-08-19T16:34:07.957Z,21.25
2022-08-19T16:36:34.564Z,21.24
2022-08-19T16:39:01.013Z,21.26
2022-08-19T16:41:28.021Z,21.37
2022-08-19T16:43:54.768Z,21.34
2022-08-19T16:46:22.686Z,21.38
2022-08-19T16:48:49.700Z,21.30
2022-08-19T16:51:16.234Z,21.30
2022-08-19T16:53:43.660Z,21.31
2022-08-19T16:56:10.883Z,21.28
2022-08-19T16:58:37.318Z,21.29
2022-08-19T17:01:04.679Z,21.25
2022-08-19T17:03:36.575Z,21.19
2022-08-19T17:06:08.144Z,21.21
2022-08-19T17:08:48.557Z,21.23
2022-08-19T17:11:18.462Z,21.22
2022-08-19T17:13:50.985Z,21.23
2022-08-19T17:16:19.821Z,21.19
2022-08-19T17:18:46.276Z,21.17
2022-08-19T17:21:13.272Z,21.17
2022-08-19T17:23:43.461Z,21.20
2022-08-19T17:26:16.774Z,21.14
2022-08-19T17:28:47.221Z,21.18
2022-08-19T17:31:13.694Z,21.19
2022-08-19T17:33:41.297Z,21.23
2022-08-19T17:36:08.910Z,21.22
2022-08-19T17:38:35.915Z,21.22
2022-08-19T17:41:05.996Z,21.22
2022-08-19T17:43:40.012Z,21.20
2022-08-19T17:46:11.195Z,21.16
2022-08-19T17:48:38.890Z,21.17
2022-08-19T17:51:18.559Z,21.15
2022-08-19T17:53:49.103Z,21.17
2022-08-19T17:56:15.727Z,21.23
2022-08-19T17:58:42.235Z,21.19
2022-08-19T18:01:13.180Z,21.18
2022-08-19T18:03:40.298Z,21.15
2022-08-19T18:06:08.009Z,21.12
2022-08-19T18:08:36.858Z,21.11
2022-08-19T18:11:03.807Z,21.14
2022-08-19T18:13:30.874Z,21.13
2022-08-19T18:16:00.255Z,21.15
2022-08-19T18:18:28.380Z,21.18
2022-08-19T18:20:56.069Z,21.16
2022-08-19T18:23:44.814Z,21.17
2022-08-19T18:26:10.722Z,21.19
2022-08-19T18:28:46.850Z,21.15
2022-08-19T18:31:17.159Z,21.15
2022-08-19T18:33:45.565Z,21.17
2022-08-19T18:36:12.218Z,21.15
2022-08-19T18:38:57.284Z,21.20
2022-08-19T18:41:43.206Z,21.21
2022-08-19T18:44:35.764Z,21.17
2022-08-19T18:47:20.835Z,21.10
2022-08-19T18:49:51.216Z,21.12
2022-08-19T18:52:18.559Z,21.11
2022-08-19T18:54:47.287Z,21.08
2022-08-19T18:57:16.720Z,21.00
2022-08-19T18:59:43.644Z,21.01
2022-08-19T19:02:12.166Z,21.03
2022-08-19T19:04:38.816Z,20.95
2022-08-19T19:07:06.132Z,20.96
2022-08-19T19:09:32.601Z,20.98
2022-08-19T19:12:00.326Z,20.99
2022-08-19T19:14:48.178Z,20.91
2022-08-19T19:17:15.455Z,20.92
2022-08-19T19:19:42.731Z,20.86
2022-08-19T19:22:14.841Z,20.79
2022-08-19T19:24:44.789Z,20.87
2022-08-19T19:27:12.985Z,20.87
2022-08-19T19:29:40.100Z,20.95
2022-08-19T19:32:07.904Z,20.99
2022-08-19T19:34:34.359Z,20.90
2022-08-19T19:37:02.621Z,20.88
2022-08-19T19:39:42.978Z,20.95
2022-08-19T19:42:19.610Z,20.89
2022-08-19T19:44:48.908Z,20.91
2022-08-19T19:47:16.083Z,20.89
2022-08-19T19:50:03.971Z,20.89
2022-08-19T19:52:28.987Z,20.90
2022-08-19T19:54:56.797Z,20.93
2022-08-19T19:57:26.864Z,20.87
2022-08-19T19:59:54.335Z,20.80
2022-08-19T20:02:22.029Z,20.83
2022-08-19T20:04:51.214Z,20.84
2022-08-19T20:07:17.810Z,20.80
2022-08-19T20:09:59.370Z,20.71
2022-08-19T20:12:26.362Z,20.73
2022-08-19T20:14:52.723Z,20.68
2022-08-19T20:17:20.633Z,20.71
2022-08-19T20:19:47.974Z,20.77
2022-08-19T20:22:14.893Z,20.74
2022-08-19T20:24:42.707Z,20.70
2022-08-19T20:27:10.766Z,20.64
2022-08-19T20:29:41.473Z,20.66
2022-08-19T20:32:10.653Z,20.51
2022-08-19T20:34:37.478Z,20.45
2022-08-19T20:37:03.967Z,20.37
2022-08-19T20:39:30.322Z,20.32
2022-08-19T20:41:56.802Z,20.32
2022-08-19T20:44:25.196Z,20.28
2022-08-19T20:46:55.299Z,20.31
2022-08-19T20:49:27.214Z,20.28
2022-08-19T20:51:54.559Z,20.27
2022-08-19T20:54:21.691Z,20.24
2022-08-19T20:56:48.037Z,20.16
2022-08-19T20:59:15.630Z,20.12
2022-08-19T21:01:43.150Z,20.10
2022-08-19T21:04:10.658Z,20.09
2022-08-19T21:06:38.149Z,20.14
2022-08-19T21:09:04.849Z,20.19
2022-08-19T21:11:32.334Z,20.14
2022-08-19T21:13:59.084Z,20.10
2022-08-19T21:16:25.485Z,20.16
2022-08-19T21:18:51.994Z,20.14
2022-08-19T21:21:18.449Z,20.05
2022-08-19T21:23:44.807Z,19.97
2022-08-19T21:26:11.274Z,19.97
2022-08-19T21:28:37.669Z,19.98
2022-08-19T21:31:05.482Z,19.95
2022-08-19T21:33:32.222Z,20.02
2022-08-19T21:35:59.435Z,20.03
2022-08-19T21:38:26.063Z,20.06
2022-08-19T21:40:52.459Z,20.05
2022-08-19T21:43:18.936Z,20.10
2022-08-19T21:45:45.967Z,20.03
2022-08-19T21:48:14.722Z,20.00
2022-08-19T21:50:41.723Z,19.98
2022-08-19T21:53:08.285Z,20.01
2022-08-19T21:55:38.274Z,20.00
2022-08-19T21:58:04.880Z,19.96
2022-08-19T22:00:32.337Z,20.06
2022-08-19T22:02:58.804Z,20.10
2022-08-19T22:05:26.075Z,20.10
2022-08-19T22:07:53.655Z,20.15
2022-08-19T22:10:21.350Z,20.11
2022-08-19T22:12:51.749Z,20.07
2022-08-19T22:15:20.513Z,19.97
2022-08-19T22:17:47.603Z,20.00
2022-08-19T22:20:15.527Z,19.92
2022-08-19T22:22:47.438Z,19.90
2022-08-19T22:25:31.152Z,19.82
2022-08-19T22:28:00.599Z,19.87
2022-08-19T22:30:28.277Z,19.98
2022-08-19T22:33:02.742Z,19.99
2022-08-19T22:35:31.460Z,20.02
2022-08-19T22:37:58.990Z,20.03
2022-08-19T22:40:26.540Z,19.97
2022-08-19T22:43:22.301Z,20.05
2022-08-19T22:45:49.739Z,19.95
2022-08-19T22:48:18.720Z,19.98
2022-08-19T22:51:05.120Z,19.94
2022-08-19T22:53:32.920Z,19.88
2022-08-19T22:55:59.523Z,19.86
2022-08-19T22:58:28.259Z,19.88
2022-08-19T23:00:54.863Z,19.90
2022-08-19T23:03:21.331Z,19.89
2022-08-19T23:05:47.937Z,19.90
2022-08-19T23:08:17.750Z,19.94
2022-08-19T23:10:44.222Z,20.00
2022-08-19T23:13:12.748Z,20.04
2022-08-19T23:15:39.110Z,20.03
2022-08-19T23:18:05.803Z,20.03
2022-08-19T23:20:34.440Z,19.87
2022-08-19T23:23:02.824Z,20.00
2022-08-19T23:25:30.443Z,19.92
2022-08-19T23:28:15.537Z,19.97
2022-08-19T23:30:44.617Z,19.94
2022-08-19T23:33:46.546Z,19.95
2022-08-19T23:36:17.808Z,19.99
2022-08-19T23:38:45.069Z,19.91
2022-08-19T23:41:12.875Z,19.95
2022-08-19T23:43:40.371Z,19.90
2022-08-19T23:46:11.325Z,19.81
2022-08-19T23:48:38.311Z,19.80
2022-08-19T23:51:06.341Z,19.74
2022-08-19T23:53:32.746Z,19.76
2022-08-19T23:55:59.674Z,19.74
2022-08-19T23:58:30.116Z,19.81
